Pagrindinis puslapis
METAR-TAF:

METAR-TAF

Oro uostai :

Parnaíba, Piauí, Brazilija

platuma: 02-55S, ilguma: 041-45W, Aukštis: 5 m

Dabartinis oras

Ataskaita buvo paskelbta 2 valandos ir 25 minutes, ne 19:45 UTC
Vėjas 10 kt iš Rytų/Šiaurės Rytų
Temperatūra 29°C
Drėgmė 74%
Slėgis 1007 hPa
Matomumas 10 km arba daugiau
Mažai debesys ne aukštis 2000 ft

METAR: SBPB 121945Z 06010KT 9999 FEW020 29/24 Q1007

Laikas: 19:10 (22:10 UTC)

Prognozė

Ataskaita buvo paskelbta 6 valandos ir 10 minutes, ne 16:00 UTC
Prognozė galioja nuo 12 metu 18 UTC su 13 metu 06 UTC
Vėjas 15 kt iš Rytų/Šiaurės Rytų
Matomumas 10 km arba daugiau
Išsisklaidę debesys ne aukštis 2000 ft

TAF: SBPB 121600Z 1218/1306 07015KT 9999 SCT020 TX31/1218Z TN26/1306Z RMK PEH

Orai ataskaitas ir orų prognozės (METAR, TAF).

turimą stotys yra geltonos ir raudonos taškus žemėlapyje.

Perkelti pele per norėdami pamatyti stoties vardą.

Tada spustelėkite, norėdami matyti oro stebėjimo ir prognozės.

Norėdami pakeisti žemėlapį: spustelėkite ant žalios mygtukų su juodo kryžiaus žemyn,; žalią mygtuką su brūkšneliu, jei norite nutolinti; arba žalių rodyklių gretimoms žemėlapius.


METAR-TAF: